Terminal Aerodrome Forecast
Issued by NWS

Home | Current Version | Previous Version | Text Only | Print | Product List | Glossary On
Versions: 1 2 3 4 5 6 7 8 9 10 11 12 13 14 15 16 17 18 19
000
FTUS44 KMAF 192300 RRA
TAFPEQ
TAF
KPEQ 192341Z 2000/2024 11009G14KT P6SM BKN080 OVC120
      TEMPO 2000/2004 1SM TSRA BR OVC015CB
     FM200400 12006KT P6SM OVC050
      TEMPO 2004/2008 2SM TSRA BR OVC020CB
     FM200800 12008KT P6SM OVC025 PROB30 2009/2015 3SM TSRA BR
      OVC010CB=

USA.gov is the U.S. government's official web portal to all federal, state and local government web resources and services.